createdAt,value
2019-03-24T00:00:37.708Z,5.67
2019-03-24T00:03:06.647Z,5.43
2019-03-24T00:05:35.559Z,5.20
2019-03-24T00:08:05.475Z,5.33
2019-03-24T00:10:34.432Z,5.57
2019-03-24T00:13:05.240Z,5.27
2019-03-24T00:15:34.593Z,5.33
2019-03-24T00:18:04.528Z,5.50
2019-03-24T00:20:33.614Z,5.17
2019-03-24T00:23:02.588Z,5.70
2019-03-24T00:25:31.497Z,5.77
2019-03-24T00:28:00.412Z,5.50
2019-03-24T00:30:29.303Z,5.57
2019-03-24T00:32:58.188Z,5.03
2019-03-24T00:35:27.396Z,5.97
2019-03-24T00:37:56.264Z,6.07
2019-03-24T00:40:26.280Z,6.67
2019-03-24T00:42:55.186Z,6.87
2019-03-24T00:45:24.090Z,5.80
2019-03-24T00:47:53.166Z,6.40
2019-03-24T00:50:22.072Z,6.70
2019-03-24T00:52:51.714Z,6.00
2019-03-24T00:55:21.818Z,5.20
2019-03-24T00:57:50.801Z,5.60
2019-03-24T01:00:42.585Z,4.93
2019-03-24T01:03:11.894Z,4.50
2019-03-24T01:05:41.047Z,4.50
2019-03-24T01:08:10.214Z,4.43
2019-03-24T01:10:42.018Z,4.33
2019-03-24T01:13:13.896Z,4.53
2019-03-24T01:15:47.792Z,4.30
2019-03-24T01:18:15.125Z,4.23
2019-03-24T01:20:44.201Z,3.90
2019-03-24T01:23:13.832Z,3.50
2019-03-24T01:25:42.762Z,4.13
2019-03-24T01:28:11.627Z,3.80
2019-03-24T01:30:40.516Z,3.77
2019-03-24T01:33:09.706Z,3.63
2019-03-24T01:35:38.606Z,3.63
2019-03-24T01:38:07.781Z,3.83
2019-03-24T01:40:36.653Z,3.53
2019-03-24T01:43:05.524Z,3.83
2019-03-24T01:45:34.428Z,3.77
2019-03-24T01:48:03.384Z,3.53
2019-03-24T01:50:32.279Z,4.00
2019-03-24T01:53:01.149Z,3.70
2019-03-24T01:55:30.058Z,3.57
2019-03-24T01:57:58.953Z,3.47
2019-03-24T02:00:28.260Z,3.83
2019-03-24T02:02:57.280Z,3.90
2019-03-24T02:05:27.429Z,3.40
2019-03-24T02:07:56.478Z,4.40
2019-03-24T02:10:25.408Z,3.60
2019-03-24T02:12:54.390Z,3.80
2019-03-24T02:15:23.375Z,3.40
2019-03-24T02:17:54.028Z,3.37
2019-03-24T02:20:23.555Z,3.47
2019-03-24T02:22:52.506Z,3.73
2019-03-24T02:25:21.773Z,2.87
2019-03-24T02:27:50.739Z,3.20
2019-03-24T02:30:19.617Z,3.23
2019-03-24T02:32:48.613Z,3.30
2019-03-24T02:35:17.501Z,3.80
2019-03-24T02:37:46.699Z,3.47
2019-03-24T02:40:15.630Z,3.33
2019-03-24T02:42:44.559Z,3.07
2019-03-24T02:45:14.949Z,3.17
2019-03-24T02:47:43.935Z,3.17
2019-03-24T02:50:14.213Z,3.10
2019-03-24T02:52:44.926Z,3.40
2019-03-24T02:55:15.105Z,3.03
2019-03-24T02:57:44.098Z,3.30
2019-03-24T03:00:13.514Z,2.83
2019-03-24T03:02:42.761Z,3.03
2019-03-24T03:05:11.760Z,2.93
2019-03-24T03:07:41.631Z,3.17
2019-03-24T03:10:10.813Z,3.00
2019-03-24T03:12:39.675Z,3.67
2019-03-24T03:15:09.192Z,3.03
2019-03-24T03:17:38.508Z,3.67
2019-03-24T03:20:08.904Z,3.53
2019-03-24T03:22:37.865Z,3.30
2019-03-24T03:25:07.030Z,2.67
2019-03-24T03:27:36.159Z,3.10
2019-03-24T03:30:06.219Z,3.17
2019-03-24T03:32:35.128Z,2.87
2019-03-24T03:35:05.008Z,3.00
2019-03-24T03:37:33.987Z,2.70
2019-03-24T03:40:03.868Z,2.67
2019-03-24T03:42:32.945Z,2.70
2019-03-24T03:45:02.583Z,3.10
2019-03-24T03:47:31.899Z,2.57
2019-03-24T03:50:00.798Z,2.60
2019-03-24T03:52:30.017Z,2.63
2019-03-24T03:54:59.158Z,2.80
2019-03-24T03:57:28.804Z,2.70
2019-03-24T03:59:57.944Z,3.00
2019-03-24T04:02:26.814Z,2.70
2019-03-24T04:04:56.038Z,3.27
2019-03-24T04:07:26.776Z,2.77
2019-03-24T04:09:55.917Z,3.07
2019-03-24T04:12:25.012Z,3.00
2019-03-24T04:14:54.182Z,2.80
2019-03-24T04:17:23.062Z,2.97
2019-03-24T04:19:53.066Z,3.17
2019-03-24T04:22:22.138Z,3.13
2019-03-24T04:24:55.813Z,3.00
2019-03-24T04:27:24.727Z,3.00
2019-03-24T04:29:53.569Z,2.63
2019-03-24T04:32:22.472Z,2.90
2019-03-24T04:34:51.625Z,3.20
2019-03-24T04:37:20.481Z,2.87
2019-03-24T04:39:49.397Z,2.77
2019-03-24T04:42:18.258Z,3.10
2019-03-24T04:44:47.115Z,3.00
2019-03-24T04:47:17.038Z,3.27
2019-03-24T04:49:45.942Z,3.10
2019-03-24T04:52:14.852Z,2.90
2019-03-24T04:54:44.032Z,3.13
2019-03-24T04:57:12.917Z,2.90
2019-03-24T04:59:41.794Z,2.72
2019-03-24T05:02:10.690Z,2.67
2019-03-24T05:04:39.517Z,2.40
2019-03-24T05:07:09.589Z,2.70
2019-03-24T05:09:38.543Z,2.70
2019-03-24T05:12:07.401Z,2.73
2019-03-24T05:14:36.292Z,3.13
2019-03-24T05:17:05.157Z,2.87
2019-03-24T05:19:34.004Z,3.20
2019-03-24T05:22:02.876Z,2.92
2019-03-24T05:24:31.786Z,3.20
2019-03-24T05:27:00.630Z,3.47
2019-03-24T05:29:29.491Z,3.47
2019-03-24T05:31:58.358Z,3.40
2019-03-24T05:34:27.285Z,3.53
2019-03-24T05:36:56.120Z,3.10
2019-03-24T05:39:25.064Z,3.55
2019-03-24T05:41:54.340Z,3.42
2019-03-24T05:44:23.362Z,3.80
2019-03-24T05:46:52.253Z,3.22
2019-03-24T05:49:21.254Z,3.33
2019-03-24T05:51:50.162Z,3.13
2019-03-24T05:54:19.070Z,3.27
2019-03-24T05:56:47.914Z,3.50
2019-03-24T05:59:18.311Z,3.97
2019-03-24T06:01:47.514Z,3.75
2019-03-24T06:04:16.575Z,3.40
2019-03-24T06:06:46.516Z,4.10
2019-03-24T06:09:16.609Z,3.80
2019-03-24T06:11:45.514Z,3.80
2019-03-24T06:14:14.403Z,4.03
2019-03-24T06:16:43.272Z,4.00
2019-03-24T06:19:12.217Z,4.50
2019-03-24T06:21:41.071Z,4.27
2019-03-24T06:24:10.325Z,4.73
2019-03-24T06:26:39.657Z,4.33
2019-03-24T06:29:08.555Z,4.43
2019-03-24T06:31:37.409Z,4.00
2019-03-24T06:34:06.348Z,4.53
2019-03-24T06:36:36.212Z,4.23
2019-03-24T06:39:06.783Z,3.97
2019-03-24T06:41:36.080Z,3.93
2019-03-24T06:44:04.946Z,4.17
2019-03-24T06:46:35.727Z,4.07
2019-03-24T06:49:04.708Z,4.60
2019-03-24T06:51:33.569Z,4.40
2019-03-24T06:54:02.857Z,5.40
2019-03-24T06:56:31.716Z,4.47
2019-03-24T06:59:00.641Z,5.70
2019-03-24T07:01:29.547Z,5.63
2019-03-24T07:03:58.441Z,6.13
2019-03-24T07:06:27.312Z,6.17
2019-03-24T07:08:56.223Z,5.87
2019-03-24T07:11:25.247Z,5.97
2019-03-24T07:13:54.271Z,7.03
2019-03-24T07:16:23.178Z,6.70
2019-03-24T07:18:52.098Z,7.77
2019-03-24T07:21:21.429Z,7.43
2019-03-24T07:23:50.389Z,7.43
2019-03-24T07:26:19.423Z,7.30
2019-03-24T07:28:48.273Z,7.77
2019-03-24T07:31:18.650Z,7.80
2019-03-24T07:33:47.508Z,8.97
2019-03-24T07:36:16.426Z,8.43
2019-03-24T07:38:47.107Z,8.23
2019-03-24T07:41:17.604Z,10.77
2019-03-24T07:43:46.455Z,10.53
2019-03-24T07:46:15.374Z,10.33
2019-03-24T07:48:44.413Z,10.97
2019-03-24T07:51:13.312Z,11.13
2019-03-24T07:53:42.597Z,11.93
2019-03-24T07:56:11.514Z,12.13
2019-03-24T07:58:40.458Z,11.00
2019-03-24T08:01:09.402Z,11.60
2019-03-24T08:03:39.488Z,12.40
2019-03-24T08:06:08.489Z,11.83
2019-03-24T08:08:44.233Z,10.90
2019-03-24T08:11:12.345Z,11.93
2019-03-24T08:13:52.934Z,11.57
2019-03-24T08:16:12.021Z,11.93
2019-03-24T08:18:40.863Z,11.30
2019-03-24T08:21:09.731Z,12.27
2019-03-24T08:23:38.593Z,12.17
2019-03-24T08:26:07.514Z,12.77
2019-03-24T08:28:36.478Z,13.27
2019-03-24T08:31:05.436Z,12.67
2019-03-24T08:33:35.747Z,12.20
2019-03-24T08:36:04.679Z,13.47
2019-03-24T08:38:33.515Z,13.67
2019-03-24T08:41:02.648Z,13.77
2019-03-24T08:43:31.886Z,12.30
2019-03-24T08:46:00.897Z,14.57
2019-03-24T08:48:40.124Z,14.80
2019-03-24T08:51:00.782Z,14.57
2019-03-24T08:53:29.628Z,15.57
2019-03-24T08:55:58.940Z,14.37
2019-03-24T08:58:27.836Z,15.47
2019-03-24T09:00:57.093Z,14.83
2019-03-24T09:03:25.909Z,15.03
2019-03-24T09:05:56.586Z,14.93
2019-03-24T09:08:25.643Z,15.87
2019-03-24T09:10:54.672Z,15.87
2019-03-24T09:13:23.663Z,16.50
2019-03-24T09:15:54.226Z,16.73
2019-03-24T09:18:23.115Z,17.00
2019-03-24T09:20:52.449Z,16.77
2019-03-24T09:23:21.454Z,17.43
2019-03-24T09:25:50.771Z,16.97
2019-03-24T09:28:19.877Z,17.97
2019-03-24T09:30:48.925Z,16.97
2019-03-24T09:33:18.956Z,17.00
2019-03-24T09:35:47.848Z,18.70
2019-03-24T09:38:16.780Z,17.87
2019-03-24T09:40:45.805Z,19.07
2019-03-24T09:43:14.739Z,18.30
2019-03-24T09:45:43.623Z,18.60
2019-03-24T09:48:12.585Z,18.17
2019-03-24T09:50:41.500Z,17.60
2019-03-24T09:53:10.672Z,18.57
2019-03-24T09:55:39.549Z,17.33
2019-03-24T09:58:08.467Z,18.37
2019-03-24T10:00:37.360Z,18.73
2019-03-24T10:03:06.821Z,18.67
2019-03-24T10:05:35.731Z,18.00
2019-03-24T10:08:04.909Z,18.10
2019-03-24T10:10:33.793Z,18.43
2019-03-24T10:13:02.927Z,18.83
2019-03-24T10:15:32.643Z,19.33
2019-03-24T10:18:01.580Z,19.53
2019-03-24T10:20:30.757Z,18.07
2019-03-24T10:22:59.787Z,18.03
2019-03-24T10:25:28.699Z,19.50
2019-03-24T10:27:57.741Z,18.90
2019-03-24T10:30:26.641Z,19.30
2019-03-24T10:32:55.959Z,17.60
2019-03-24T10:35:24.805Z,18.70
2019-03-24T10:37:54.457Z,18.57
2019-03-24T10:40:28.598Z,18.87
2019-03-24T10:42:54.188Z,18.17
2019-03-24T10:45:23.065Z,19.43
2019-03-24T10:47:53.173Z,20.37
2019-03-24T10:50:22.056Z,18.00
2019-03-24T10:52:52.246Z,19.57
2019-03-24T10:55:22.298Z,18.97
2019-03-24T10:57:52.422Z,17.73
2019-03-24T11:00:40.414Z,19.67
2019-03-24T11:03:09.362Z,18.40
2019-03-24T11:05:38.628Z,19.23
2019-03-24T11:08:07.512Z,19.37
2019-03-24T11:10:36.556Z,19.67
2019-03-24T11:13:07.460Z,19.80
2019-03-24T11:15:37.441Z,19.13
2019-03-24T11:18:09.305Z,19.63
2019-03-24T11:20:38.579Z,19.30
2019-03-24T11:23:07.730Z,20.50
2019-03-24T11:25:36.568Z,19.57
2019-03-24T11:28:05.443Z,19.17
2019-03-24T11:30:34.344Z,20.07
2019-03-24T11:33:04.338Z,19.63
2019-03-24T11:35:33.311Z,19.53
2019-03-24T11:38:02.183Z,20.80
2019-03-24T11:40:31.105Z,20.73
2019-03-24T11:43:00.043Z,19.60
2019-03-24T11:45:28.859Z,18.90
2019-03-24T11:47:58.149Z,20.70
2019-03-24T11:50:27.006Z,20.27
2019-03-24T11:52:55.885Z,19.80
2019-03-24T11:55:24.761Z,20.10
2019-03-24T11:58:05.097Z,19.40
2019-03-24T12:00:44.923Z,20.07
2019-03-24T12:03:14.018Z,20.07
2019-03-24T12:05:42.885Z,20.53
2019-03-24T12:08:12.046Z,21.30
2019-03-24T12:10:40.919Z,20.17
2019-03-24T12:13:11.650Z,21.70
2019-03-24T12:15:40.550Z,19.90
2019-03-24T12:18:09.542Z,19.87
2019-03-24T12:20:38.483Z,19.13
2019-03-24T12:23:07.751Z,19.23
2019-03-24T12:25:36.594Z,20.13
2019-03-24T12:28:05.469Z,19.03
2019-03-24T12:30:34.590Z,20.33
2019-03-24T12:33:03.634Z,19.87
2019-03-24T12:35:32.451Z,19.97
2019-03-24T12:38:02.382Z,19.80
2019-03-24T12:40:31.381Z,20.53
2019-03-24T12:43:00.281Z,19.97
2019-03-24T12:45:29.125Z,20.87
2019-03-24T12:47:58.079Z,20.43
2019-03-24T12:50:31.640Z,19.97
2019-03-24T12:52:57.792Z,21.10
2019-03-24T12:55:27.997Z,19.63
2019-03-24T12:57:57.036Z,20.93
2019-03-24T13:00:37.742Z,19.87
2019-03-24T13:03:07.319Z,18.30
2019-03-24T13:05:36.356Z,19.90
2019-03-24T13:08:30.370Z,20.67
2019-03-24T13:10:59.449Z,18.93
2019-03-24T13:13:28.496Z,18.17
2019-03-24T13:16:01.040Z,19.97
2019-03-24T13:18:30.238Z,21.73
2019-03-24T13:20:59.162Z,19.83
2019-03-24T13:23:28.327Z,19.90
2019-03-24T13:25:57.328Z,19.77
2019-03-24T13:28:35.762Z,19.83
2019-03-24T13:31:04.625Z,19.47
2019-03-24T13:33:33.540Z,19.40
2019-03-24T13:36:10.338Z,19.20
2019-03-24T13:38:39.202Z,17.97
2019-03-24T13:41:08.592Z,19.53
2019-03-24T13:43:43.201Z,19.67
2019-03-24T13:46:12.646Z,17.97
2019-03-24T13:48:41.751Z,18.87
2019-03-24T13:51:20.276Z,18.50
2019-03-24T13:53:49.379Z,17.80
2019-03-24T13:56:19.403Z,18.77
2019-03-24T13:58:49.255Z,18.20
2019-03-24T14:01:18.124Z,17.97
2019-03-24T14:03:47.008Z,16.57
2019-03-24T14:06:16.248Z,16.93
2019-03-24T14:08:45.117Z,17.77
2019-03-24T14:11:14.281Z,16.20
2019-03-24T14:13:43.192Z,16.47
2019-03-24T14:16:12.128Z,18.77
2019-03-24T14:18:41.342Z,17.60
2019-03-24T14:21:10.384Z,15.77
2019-03-24T14:23:39.572Z,17.63
2019-03-24T14:26:08.500Z,17.80
2019-03-24T14:28:38.495Z,17.07
2019-03-24T14:31:07.395Z,16.47
2019-03-24T14:33:37.101Z,17.70
2019-03-24T14:36:06.012Z,16.90
2019-03-24T14:38:35.155Z,15.67
2019-03-24T14:41:04.949Z,15.77
2019-03-24T14:43:34.010Z,16.50
2019-03-24T14:46:03.072Z,15.67
2019-03-24T14:48:32.303Z,16.97
2019-03-24T14:51:01.197Z,16.23
2019-03-24T14:53:30.378Z,16.20
2019-03-24T14:55:59.370Z,15.77
2019-03-24T14:58:28.277Z,16.03
2019-03-24T15:00:57.562Z,15.33
2019-03-24T15:03:26.442Z,16.33
2019-03-24T15:05:55.453Z,16.30
2019-03-24T15:08:25.376Z,15.83
2019-03-24T15:10:54.275Z,16.40
2019-03-24T15:13:24.329Z,16.43
2019-03-24T15:15:53.399Z,15.93
2019-03-24T15:18:22.415Z,15.10
2019-03-24T15:20:51.320Z,15.37
2019-03-24T15:23:23.093Z,15.50
2019-03-24T15:25:52.493Z,15.17
2019-03-24T15:28:21.358Z,16.17
2019-03-24T15:30:50.286Z,15.60
2019-03-24T15:33:19.160Z,15.43
2019-03-24T15:35:48.361Z,14.03
2019-03-24T15:38:17.237Z,13.87
2019-03-24T15:40:46.140Z,14.47
2019-03-24T15:43:15.021Z,13.00
2019-03-24T15:45:44.043Z,12.10
2019-03-24T15:48:13.096Z,13.53
2019-03-24T15:50:42.040Z,13.17
2019-03-24T15:53:10.972Z,12.53
2019-03-24T15:55:39.912Z,12.20
2019-03-24T15:58:09.876Z,12.93
2019-03-24T16:00:47.033Z,12.43
2019-03-24T16:03:16.271Z,13.63
2019-03-24T16:05:45.183Z,13.47
2019-03-24T16:08:14.059Z,13.73
2019-03-24T16:10:43.341Z,12.97
2019-03-24T16:13:12.871Z,13.80
2019-03-24T16:15:41.815Z,14.23
2019-03-24T16:18:10.770Z,14.33
2019-03-24T16:20:41.053Z,15.00
2019-03-24T16:23:10.160Z,16.33
2019-03-24T16:25:39.530Z,14.30
2019-03-24T16:28:09.104Z,13.57
2019-03-24T16:30:38.272Z,13.63
2019-03-24T16:33:07.283Z,13.10
2019-03-24T16:35:36.214Z,11.13
2019-03-24T16:38:05.352Z,11.97
2019-03-24T16:40:35.005Z,12.13
2019-03-24T16:43:04.399Z,11.90
2019-03-24T16:45:35.051Z,12.93
2019-03-24T16:48:05.151Z,12.17
2019-03-24T16:50:34.267Z,12.53
2019-03-24T16:53:03.344Z,11.73
2019-03-24T16:55:32.581Z,11.77
2019-03-24T16:58:01.534Z,12.53
2019-03-24T17:00:30.566Z,12.47
2019-03-24T17:03:00.344Z,12.60
2019-03-24T17:05:29.875Z,12.13
2019-03-24T17:07:59.206Z,12.07
2019-03-24T17:10:28.064Z,11.60
2019-03-24T17:12:57.764Z,11.63
2019-03-24T17:15:27.075Z,12.53
2019-03-24T17:17:56.089Z,12.00
2019-03-24T17:20:24.967Z,11.83
2019-03-24T17:23:00.846Z,11.23
2019-03-24T17:25:30.246Z,11.80
2019-03-24T17:27:59.632Z,11.87
2019-03-24T17:30:28.793Z,13.40
2019-03-24T17:32:57.981Z,12.80
2019-03-24T17:35:26.939Z,11.40
2019-03-24T17:37:57.926Z,12.53
2019-03-24T17:40:27.046Z,12.87
2019-03-24T17:42:57.249Z,12.57
2019-03-24T17:45:26.685Z,12.43
2019-03-24T17:48:06.707Z,12.23
2019-03-24T17:50:37.649Z,12.33
2019-03-24T17:53:07.031Z,13.60
2019-03-24T17:55:36.370Z,12.97
2019-03-24T17:58:05.696Z,13.27
2019-03-24T18:00:42.199Z,13.67
2019-03-24T18:03:11.357Z,12.40
2019-03-24T18:05:40.349Z,13.00
2019-03-24T18:08:09.323Z,13.90
2019-03-24T18:10:38.589Z,12.43
2019-03-24T18:13:15.589Z,12.53
2019-03-24T18:15:48.547Z,12.63
2019-03-24T18:18:23.026Z,11.83
2019-03-24T18:20:51.997Z,12.63
2019-03-24T18:23:23.875Z,11.63
2019-03-24T18:25:52.852Z,11.93
2019-03-24T18:28:21.897Z,13.03
2019-03-24T18:30:50.993Z,12.40
2019-03-24T18:33:20.336Z,12.10
2019-03-24T18:35:58.155Z,12.17
2019-03-24T18:38:27.279Z,10.87
2019-03-24T18:41:03.657Z,11.57
2019-03-24T18:43:32.584Z,12.07
2019-03-24T18:46:02.771Z,11.87
2019-03-24T18:48:31.703Z,12.57
2019-03-24T18:51:00.742Z,12.77
2019-03-24T18:53:30.871Z,11.83
2019-03-24T18:55:59.758Z,11.67
2019-03-24T18:58:31.962Z,11.90
2019-03-24T19:01:00.537Z,11.87
2019-03-24T19:03:30.715Z,12.80
2019-03-24T19:05:59.610Z,13.03
2019-03-24T19:08:28.736Z,12.70
2019-03-24T19:10:57.641Z,11.70
2019-03-24T19:13:27.039Z,12.43
2019-03-24T19:15:56.097Z,12.57
2019-03-24T19:18:25.148Z,12.47
2019-03-24T19:20:55.187Z,12.73
2019-03-24T19:23:26.345Z,12.47
2019-03-24T19:25:55.528Z,11.37
2019-03-24T19:28:24.826Z,12.33
2019-03-24T19:30:53.775Z,11.70
2019-03-24T19:33:24.161Z,12.03
2019-03-24T19:35:54.825Z,11.87
2019-03-24T19:38:25.434Z,11.37
2019-03-24T19:40:54.456Z,11.00
2019-03-24T19:43:24.580Z,11.23
2019-03-24T19:45:53.630Z,11.57
2019-03-24T19:48:22.818Z,10.80
2019-03-24T19:50:51.756Z,10.87
2019-03-24T19:53:20.953Z,10.27
2019-03-24T19:55:49.902Z,10.80
2019-03-24T19:58:18.851Z,11.03
2019-03-24T20:00:47.778Z,10.67
2019-03-24T20:03:16.714Z,10.23
2019-03-24T20:05:46.114Z,10.53
2019-03-24T20:08:15.280Z,10.53
2019-03-24T20:10:44.792Z,10.53
2019-03-24T20:13:15.146Z,10.47
2019-03-24T20:15:44.371Z,10.70
2019-03-24T20:18:13.570Z,10.30
2019-03-24T20:20:42.769Z,10.57
2019-03-24T20:23:11.644Z,9.73
2019-03-24T20:25:59.169Z,10.47
2019-03-24T20:28:28.218Z,10.47
2019-03-24T20:30:59.144Z,10.40
2019-03-24T20:33:29.517Z,10.13
2019-03-24T20:35:58.490Z,10.30
2019-03-24T20:38:27.995Z,10.03
2019-03-24T20:40:57.549Z,10.13
2019-03-24T20:43:28.355Z,9.60
2019-03-24T20:45:57.319Z,10.33
2019-03-24T20:48:27.497Z,10.30
2019-03-24T20:51:10.418Z,9.77
2019-03-24T20:53:39.517Z,9.67
2019-03-24T20:56:08.544Z,9.87
2019-03-24T20:58:37.576Z,9.53
2019-03-24T21:01:07.928Z,10.33
2019-03-24T21:03:36.960Z,9.83
2019-03-24T21:06:05.841Z,9.87
2019-03-24T21:08:34.831Z,9.70
2019-03-24T21:11:04.079Z,10.10
2019-03-24T21:13:32.978Z,9.83
2019-03-24T21:16:02.414Z,9.57
2019-03-24T21:18:39.756Z,9.43
2019-03-24T21:21:09.252Z,9.20
2019-03-24T21:23:45.893Z,8.93
2019-03-24T21:26:16.049Z,9.33
2019-03-24T21:28:45.315Z,9.43
2019-03-24T21:31:14.487Z,9.00
2019-03-24T21:33:43.517Z,9.10
2019-03-24T21:36:12.551Z,9.40
2019-03-24T21:38:41.426Z,10.60
2019-03-24T21:41:12.211Z,10.53
2019-03-24T21:43:41.211Z,9.53
2019-03-24T21:46:10.133Z,8.90
2019-03-24T21:48:39.098Z,9.00
2019-03-24T21:51:08.387Z,9.30
2019-03-24T21:53:40.850Z,8.63
2019-03-24T21:56:08.641Z,8.13
2019-03-24T21:58:37.552Z,8.47
2019-03-24T22:01:07.149Z,9.23
2019-03-24T22:03:36.517Z,8.57
2019-03-24T22:06:05.461Z,9.33
2019-03-24T22:08:34.363Z,8.77
2019-03-24T22:11:03.749Z,8.60
2019-03-24T22:13:32.670Z,8.23
2019-03-24T22:16:01.551Z,8.47
2019-03-24T22:18:30.825Z,8.40
2019-03-24T22:21:00.981Z,8.00
2019-03-24T22:23:29.898Z,8.80
2019-03-24T22:25:59.033Z,8.37
2019-03-24T22:28:27.955Z,7.97
2019-03-24T22:30:56.831Z,8.07
2019-03-24T22:33:27.727Z,8.00
2019-03-24T22:35:57.834Z,8.23
2019-03-24T22:38:27.469Z,8.27
2019-03-24T22:40:56.323Z,7.87
2019-03-24T22:43:27.016Z,8.93
2019-03-24T22:45:55.897Z,7.67
2019-03-24T22:48:24.798Z,8.07
2019-03-24T22:50:53.800Z,8.13
2019-03-24T22:53:22.721Z,8.10
2019-03-24T22:55:51.595Z,7.90
2019-03-24T22:58:20.524Z,8.00
2019-03-24T23:00:55.015Z,7.33
2019-03-24T23:03:25.255Z,8.20
2019-03-24T23:05:54.936Z,8.67
2019-03-24T23:08:23.844Z,8.60
2019-03-24T23:10:52.738Z,7.67
2019-03-24T23:13:21.639Z,8.50
2019-03-24T23:15:50.537Z,8.93
2019-03-24T23:18:19.802Z,9.17
2019-03-24T23:20:48.732Z,9.27
2019-03-24T23:23:17.745Z,8.50
2019-03-24T23:25:46.673Z,8.60
2019-03-24T23:28:15.860Z,8.60
2019-03-24T23:30:44.876Z,9.07
2019-03-24T23:33:15.697Z,9.27
2019-03-24T23:35:45.516Z,8.63
2019-03-24T23:38:14.556Z,8.67
2019-03-24T23:40:43.601Z,9.40
2019-03-24T23:43:12.574Z,8.63
2019-03-24T23:45:41.808Z,9.03
2019-03-24T23:48:11.064Z,9.07
2019-03-24T23:50:41.105Z,8.77
2019-03-24T23:53:09.945Z,8.90
2019-03-24T23:55:39.128Z,8.70
2019-03-24T23:58:07.990Z,9.33
